sensor_id;sensor_type;location;lat;lon;timestamp;P1;durP1;ratioP1;P2;durP2;ratioP2
50213;SDS011;36103;54.176;12.070;2022-10-31T00:00:54;21.33;;;11.13;;
50213;SDS011;36103;54.176;12.070;2022-10-31T00:01:55;23.43;;;10.87;;
50213;SDS011;36103;54.176;12.070;2022-10-31T00:02:56;20.43;;;10.63;;
50213;SDS011;36103;54.176;12.070;2022-10-31T00:03:56;23.53;;;10.67;;
50213;SDS011;36103;54.176;12.070;2022-10-31T00:04:58;22.80;;;11.13;;
50213;SDS011;36103;54.176;12.070;2022-10-31T00:06:00;24.30;;;10.73;;
50213;SDS011;36103;54.176;12.070;2022-10-31T00:07:01;20.93;;;10.80;;
50213;SDS011;36103;54.176;12.070;2022-10-31T00:08:02;23.70;;;11.00;;
50213;SDS011;36103;54.176;12.070;2022-10-31T00:09:04;23.97;;;11.27;;
50213;SDS011;36103;54.176;12.070;2022-10-31T00:10:05;22.63;;;11.03;;
50213;SDS011;36103;54.176;12.070;2022-10-31T00:11:08;20.80;;;9.80;;
50213;SDS011;36103;54.176;12.070;2022-10-31T00:12:08;24.27;;;11.43;;
50213;SDS011;36103;54.176;12.070;2022-10-31T00:13:10;23.00;;;11.20;;
50213;SDS011;36103;54.176;12.070;2022-10-31T00:14:12;21.27;;;10.63;;
50213;SDS011;36103;54.176;12.070;2022-10-31T00:15:13;17.13;;;10.00;;
50213;SDS011;36103;54.176;12.070;2022-10-31T00:16:14;20.27;;;10.27;;
50213;SDS011;36103;54.176;12.070;2022-10-31T00:17:16;22.03;;;10.20;;
50213;SDS011;36103;54.176;12.070;2022-10-31T00:18:16;22.47;;;11.20;;
50213;SDS011;36103;54.176;12.070;2022-10-31T00:19:18;22.47;;;10.30;;
50213;SDS011;36103;54.176;12.070;2022-10-31T00:20:18;21.83;;;10.83;;
50213;SDS011;36103;54.176;12.070;2022-10-31T00:21:21;19.17;;;10.43;;
50213;SDS011;36103;54.176;12.070;2022-10-31T00:22:22;21.07;;;10.07;;
50213;SDS011;36103;54.176;12.070;2022-10-31T00:23:23;18.43;;;10.23;;
50213;SDS011;36103;54.176;12.070;2022-10-31T00:24:24;21.97;;;10.77;;
50213;SDS011;36103;54.176;12.070;2022-10-31T00:25:26;19.00;;;10.10;;
50213;SDS011;36103;54.176;12.070;2022-10-31T00:26:28;22.37;;;9.97;;
50213;SDS011;36103;54.176;12.070;2022-10-31T00:27:29;21.60;;;10.43;;
50213;SDS011;36103;54.176;12.070;2022-10-31T00:28:30;20.23;;;10.47;;
50213;SDS011;36103;54.176;12.070;2022-10-31T00:29:32;16.57;;;9.37;;
50213;SDS011;36103;54.176;12.070;2022-10-31T00:30:32;21.20;;;9.97;;
50213;SDS011;36103;54.176;12.070;2022-10-31T00:31:34;21.40;;;10.93;;
50213;SDS011;36103;54.176;12.070;2022-10-31T00:32:34;21.80;;;10.17;;
50213;SDS011;36103;54.176;12.070;2022-10-31T00:33:36;20.17;;;10.77;;
50213;SDS011;36103;54.176;12.070;2022-10-31T00:34:37;22.93;;;10.20;;
50213;SDS011;36103;54.176;12.070;2022-10-31T00:35:39;24.73;;;11.10;;
50213;SDS011;36103;54.176;12.070;2022-10-31T00:36:41;20.57;;;10.03;;
50213;SDS011;36103;54.176;12.070;2022-10-31T00:37:46;19.00;;;9.27;;
50213;SDS011;36103;54.176;12.070;2022-10-31T00:38:47;17.90;;;10.10;;
50213;SDS011;36103;54.176;12.070;2022-10-31T00:39:48;18.50;;;10.47;;
50213;SDS011;36103;54.176;12.070;2022-10-31T00:40:49;21.00;;;10.43;;
50213;SDS011;36103;54.176;12.070;2022-10-31T00:41:51;23.30;;;10.00;;
50213;SDS011;36103;54.176;12.070;2022-10-31T00:42:51;20.57;;;10.73;;
50213;SDS011;36103;54.176;12.070;2022-10-31T00:43:53;19.33;;;10.07;;
50213;SDS011;36103;54.176;12.070;2022-10-31T00:44:53;19.30;;;9.63;;
50213;SDS011;36103;54.176;12.070;2022-10-31T00:45:54;17.97;;;10.23;;
50213;SDS011;36103;54.176;12.070;2022-10-31T00:46:58;19.20;;;9.40;;
50213;SDS011;36103;54.176;12.070;2022-10-31T00:47:59;17.90;;;10.03;;
50213;SDS011;36103;54.176;12.070;2022-10-31T00:49:00;19.17;;;9.47;;
50213;SDS011;36103;54.176;12.070;2022-10-31T00:50:02;18.73;;;9.50;;
50213;SDS011;36103;54.176;12.070;2022-10-31T00:51:04;19.37;;;10.13;;
50213;SDS011;36103;54.176;12.070;2022-10-31T00:52:07;19.20;;;9.80;;
50213;SDS011;36103;54.176;12.070;2022-10-31T00:53:08;16.23;;;9.60;;
50213;SDS011;36103;54.176;12.070;2022-10-31T00:54:09;17.43;;;9.77;;
50213;SDS011;36103;54.176;12.070;2022-10-31T00:55:10;17.97;;;10.10;;
50213;SDS011;36103;54.176;12.070;2022-10-31T00:56:11;17.53;;;8.90;;
50213;SDS011;36103;54.176;12.070;2022-10-31T00:57:11;21.13;;;9.67;;
50213;SDS011;36103;54.176;12.070;2022-10-31T00:58:14;20.97;;;9.90;;
50213;SDS011;36103;54.176;12.070;2022-10-31T00:59:14;19.00;;;9.50;;
50213;SDS011;36103;54.176;12.070;2022-10-31T01:00:16;19.17;;;9.67;;
50213;SDS011;36103;54.176;12.070;2022-10-31T01:01:16;18.53;;;9.57;;
50213;SDS011;36103;54.176;12.070;2022-10-31T01:02:18;15.80;;;8.80;;
50213;SDS011;36103;54.176;12.070;2022-10-31T01:03:19;17.90;;;9.23;;
50213;SDS011;36103;54.176;12.070;2022-10-31T01:04:20;17.83;;;9.87;;
50213;SDS011;36103;54.176;12.070;2022-10-31T01:05:23;19.90;;;9.30;;
50213;SDS011;36103;54.176;12.070;2022-10-31T01:06:24;17.27;;;9.37;;
50213;SDS011;36103;54.176;12.070;2022-10-31T01:07:26;18.63;;;8.97;;
50213;SDS011;36103;54.176;12.070;2022-10-31T01:08:28;18.13;;;9.20;;
50213;SDS011;36103;54.176;12.070;2022-10-31T01:09:28;18.73;;;9.10;;
50213;SDS011;36103;54.176;12.070;2022-10-31T01:10:30;18.87;;;9.17;;
50213;SDS011;36103;54.176;12.070;2022-10-31T01:11:30;18.33;;;9.30;;
50213;SDS011;36103;54.176;12.070;2022-10-31T01:12:35;17.07;;;9.13;;
50213;SDS011;36103;54.176;12.070;2022-10-31T01:13:36;16.23;;;9.50;;
50213;SDS011;36103;54.176;12.070;2022-10-31T01:14:37;18.07;;;9.57;;
50213;SDS011;36103;54.176;12.070;2022-10-31T01:15:38;20.83;;;10.17;;
50213;SDS011;36103;54.176;12.070;2022-10-31T01:16:41;18.27;;;9.23;;
50213;SDS011;36103;54.176;12.070;2022-10-31T01:17:42;19.17;;;9.07;;
50213;SDS011;36103;54.176;12.070;2022-10-31T01:18:45;17.03;;;8.97;;
50213;SDS011;36103;54.176;12.070;2022-10-31T01:19:46;17.93;;;9.83;;
50213;SDS011;36103;54.176;12.070;2022-10-31T01:20:47;19.70;;;9.40;;
50213;SDS011;36103;54.176;12.070;2022-10-31T01:21:47;16.97;;;8.73;;
50213;SDS011;36103;54.176;12.070;2022-10-31T01:22:50;16.43;;;8.40;;
50213;SDS011;36103;54.176;12.070;2022-10-31T01:23:52;18.97;;;9.60;;
50213;SDS011;36103;54.176;12.070;2022-10-31T01:24:54;13.80;;;7.87;;
50213;SDS011;36103;54.176;12.070;2022-10-31T01:25:59;18.17;;;9.33;;
50213;SDS011;36103;54.176;12.070;2022-10-31T01:27:03;15.70;;;8.47;;
50213;SDS011;36103;54.176;12.070;2022-10-31T01:28:07;20.00;;;9.23;;
50213;SDS011;36103;54.176;12.070;2022-10-31T01:29:09;18.47;;;9.27;;
50213;SDS011;36103;54.176;12.070;2022-10-31T01:30:10;15.20;;;7.93;;
50213;SDS011;36103;54.176;12.070;2022-10-31T01:31:12;14.23;;;8.27;;
50213;SDS011;36103;54.176;12.070;2022-10-31T01:32:12;15.40;;;9.07;;
50213;SDS011;36103;54.176;12.070;2022-10-31T01:33:14;16.53;;;8.77;;
50213;SDS011;36103;54.176;12.070;2022-10-31T01:34:15;17.30;;;9.27;;
50213;SDS011;36103;54.176;12.070;2022-10-31T01:35:17;19.20;;;8.67;;
50213;SDS011;36103;54.176;12.070;2022-10-31T01:36:19;16.33;;;8.37;;
50213;SDS011;36103;54.176;12.070;2022-10-31T01:37:24;15.10;;;9.17;;
50213;SDS011;36103;54.176;12.070;2022-10-31T01:38:26;15.00;;;8.90;;
50213;SDS011;36103;54.176;12.070;2022-10-31T01:39:28;17.33;;;8.90;;
50213;SDS011;36103;54.176;12.070;2022-10-31T01:40:29;19.27;;;8.50;;
50213;SDS011;36103;54.176;12.070;2022-10-31T01:41:31;14.60;;;7.50;;
50213;SDS011;36103;54.176;12.070;2022-10-31T01:42:33;13.20;;;8.30;;
50213;SDS011;36103;54.176;12.070;2022-10-31T01:43:44;18.30;;;8.37;;
50213;SDS011;36103;54.176;12.070;2022-10-31T01:44:49;16.00;;;8.50;;
50213;SDS011;36103;54.176;12.070;2022-10-31T01:45:56;18.40;;;8.80;;
50213;SDS011;36103;54.176;12.070;2022-10-31T01:46:58;15.67;;;7.90;;
50213;SDS011;36103;54.176;12.070;2022-10-31T01:48:00;16.03;;;8.13;;
50213;SDS011;36103;54.176;12.070;2022-10-31T01:49:01;13.17;;;7.60;;
50213;SDS011;36103;54.176;12.070;2022-10-31T01:50:08;13.80;;;8.10;;
50213;SDS011;36103;54.176;12.070;2022-10-31T01:51:11;15.20;;;8.73;;
50213;SDS011;36103;54.176;12.070;2022-10-31T01:52:14;14.17;;;8.00;;
50213;SDS011;36103;54.176;12.070;2022-10-31T01:53:18;13.77;;;8.23;;
50213;SDS011;36103;54.176;12.070;2022-10-31T01:54:21;14.10;;;7.87;;
50213;SDS011;36103;54.176;12.070;2022-10-31T01:55:24;17.67;;;8.47;;
50213;SDS011;36103;54.176;12.070;2022-10-31T01:56:28;14.23;;;8.17;;
50213;SDS011;36103;54.176;12.070;2022-10-31T01:57:28;15.47;;;8.90;;
50213;SDS011;36103;54.176;12.070;2022-10-31T01:58:30;17.87;;;8.03;;
50213;SDS011;36103;54.176;12.070;2022-10-31T01:59:32;13.70;;;8.40;;
50213;SDS011;36103;54.176;12.070;2022-10-31T02:00:36;13.83;;;7.77;;
50213;SDS011;36103;54.176;12.070;2022-10-31T02:01:37;15.47;;;8.13;;
50213;SDS011;36103;54.176;12.070;2022-10-31T02:02:38;15.13;;;8.53;;
50213;SDS011;36103;54.176;12.070;2022-10-31T02:03:39;14.87;;;8.00;;
50213;SDS011;36103;54.176;12.070;2022-10-31T02:04:40;13.63;;;8.00;;
50213;SDS011;36103;54.176;12.070;2022-10-31T02:05:41;12.40;;;7.63;;
50213;SDS011;36103;54.176;12.070;2022-10-31T02:06:45;11.53;;;7.50;;
50213;SDS011;36103;54.176;12.070;2022-10-31T02:07:50;13.37;;;7.70;;
50213;SDS011;36103;54.176;12.070;2022-10-31T02:09:01;13.90;;;8.30;;
50213;SDS011;36103;54.176;12.070;2022-10-31T02:10:05;12.93;;;7.53;;
50213;SDS011;36103;54.176;12.070;2022-10-31T02:11:07;11.70;;;7.47;;
50213;SDS011;36103;54.176;12.070;2022-10-31T02:12:10;14.83;;;7.70;;
50213;SDS011;36103;54.176;12.070;2022-10-31T02:13:11;13.10;;;7.73;;
50213;SDS011;36103;54.176;12.070;2022-10-31T02:14:21;13.80;;;8.07;;
50213;SDS011;36103;54.176;12.070;2022-10-31T02:15:25;15.30;;;8.27;;
50213;SDS011;36103;54.176;12.070;2022-10-31T02:16:26;14.40;;;7.70;;
50213;SDS011;36103;54.176;12.070;2022-10-31T02:17:28;14.30;;;7.97;;
50213;SDS011;36103;54.176;12.070;2022-10-31T02:18:31;13.50;;;7.27;;
50213;SDS011;36103;54.176;12.070;2022-10-31T02:19:34;13.47;;;7.77;;
50213;SDS011;36103;54.176;12.070;2022-10-31T02:20:40;15.13;;;7.53;;
50213;SDS011;36103;54.176;12.070;2022-10-31T02:21:48;13.03;;;7.37;;
50213;SDS011;36103;54.176;12.070;2022-10-31T02:23:01;13.47;;;7.17;;
50213;SDS011;36103;54.176;12.070;2022-10-31T02:24:35;12.80;;;7.40;;
50213;SDS011;36103;54.176;12.070;2022-10-31T02:25:55;14.43;;;7.67;;
50213;SDS011;36103;54.176;12.070;2022-10-31T02:27:11;12.93;;;7.67;;
50213;SDS011;36103;54.176;12.070;2022-10-31T02:28:24;14.13;;;7.07;;
50213;SDS011;36103;54.176;12.070;2022-10-31T02:29:42;13.80;;;7.60;;
50213;SDS011;36103;54.176;12.070;2022-10-31T02:30:56;11.17;;;6.93;;
50213;SDS011;36103;54.176;12.070;2022-10-31T02:32:03;13.53;;;7.37;;
50213;SDS011;36103;54.176;12.070;2022-10-31T02:33:11;16.67;;;7.07;;
50213;SDS011;36103;54.176;12.070;2022-10-31T02:34:19;12.47;;;7.30;;
50213;SDS011;36103;54.176;12.070;2022-10-31T02:35:24;14.73;;;7.13;;
50213;SDS011;36103;54.176;12.070;2022-10-31T02:36:34;15.30;;;8.37;;
50213;SDS011;36103;54.176;12.070;2022-10-31T02:37:40;13.13;;;7.03;;
50213;SDS011;36103;54.176;12.070;2022-10-31T02:38:48;11.50;;;7.43;;
50213;SDS011;36103;54.176;12.070;2022-10-31T02:40:04;11.93;;;7.07;;
50213;SDS011;36103;54.176;12.070;2022-10-31T02:41:32;11.63;;;6.80;;
50213;SDS011;36103;54.176;12.070;2022-10-31T02:42:42;13.30;;;7.43;;
50213;SDS011;36103;54.176;12.070;2022-10-31T02:43:54;13.30;;;6.80;;
50213;SDS011;36103;54.176;12.070;2022-10-31T02:45:03;12.57;;;7.20;;
50213;SDS011;36103;54.176;12.070;2022-10-31T02:46:10;14.37;;;7.80;;
50213;SDS011;36103;54.176;12.070;2022-10-31T02:47:15;10.40;;;6.60;;
50213;SDS011;36103;54.176;12.070;2022-10-31T02:48:18;10.63;;;7.03;;
50213;SDS011;36103;54.176;12.070;2022-10-31T02:49:22;11.60;;;7.03;;
50213;SDS011;36103;54.176;12.070;2022-10-31T02:50:26;12.03;;;7.33;;
50213;SDS011;36103;54.176;12.070;2022-10-31T02:51:30;9.37;;;6.80;;
50213;SDS011;36103;54.176;12.070;2022-10-31T02:52:31;11.30;;;6.60;;
50213;SDS011;36103;54.176;12.070;2022-10-31T02:53:36;12.40;;;7.40;;
50213;SDS011;36103;54.176;12.070;2022-10-31T02:54:38;12.43;;;6.93;;
50213;SDS011;36103;54.176;12.070;2022-10-31T02:55:44;12.10;;;7.37;;
50213;SDS011;36103;54.176;12.070;2022-10-31T02:56:48;11.00;;;6.63;;
50213;SDS011;36103;54.176;12.070;2022-10-31T02:57:50;10.80;;;6.40;;
50213;SDS011;36103;54.176;12.070;2022-10-31T02:58:54;12.20;;;6.77;;
50213;SDS011;36103;54.176;12.070;2022-10-31T02:59:58;12.00;;;7.00;;
50213;SDS011;36103;54.176;12.070;2022-10-31T03:01:06;12.07;;;6.93;;
50213;SDS011;36103;54.176;12.070;2022-10-31T03:02:19;13.70;;;8.13;;
50213;SDS011;36103;54.176;12.070;2022-10-31T03:03:26;11.67;;;6.60;;
50213;SDS011;36103;54.176;12.070;2022-10-31T03:04:38;13.23;;;6.80;;
50213;SDS011;36103;54.176;12.070;2022-10-31T03:05:46;11.20;;;7.00;;
50213;SDS011;36103;54.176;12.070;2022-10-31T03:06:52;9.60;;;6.40;;
50213;SDS011;36103;54.176;12.070;2022-10-31T03:07:57;9.73;;;5.47;;
50213;SDS011;36103;54.176;12.070;2022-10-31T03:09:07;11.83;;;6.50;;
50213;SDS011;36103;54.176;12.070;2022-10-31T03:10:14;10.30;;;6.60;;
50213;SDS011;36103;54.176;12.070;2022-10-31T03:11:19;9.33;;;5.87;;
50213;SDS011;36103;54.176;12.070;2022-10-31T03:12:25;12.07;;;6.83;;
50213;SDS011;36103;54.176;12.070;2022-10-31T03:13:32;9.87;;;7.07;;
50213;SDS011;36103;54.176;12.070;2022-10-31T03:14:37;11.77;;;6.60;;
50213;SDS011;36103;54.176;12.070;2022-10-31T03:15:43;8.70;;;6.37;;
50213;SDS011;36103;54.176;12.070;2022-10-31T03:16:46;11.13;;;6.97;;
50213;SDS011;36103;54.176;12.070;2022-10-31T03:17:53;10.93;;;6.50;;
50213;SDS011;36103;54.176;12.070;2022-10-31T03:18:57;11.47;;;6.60;;
50213;SDS011;36103;54.176;12.070;2022-10-31T03:20:03;10.47;;;6.40;;
50213;SDS011;36103;54.176;12.070;2022-10-31T03:21:07;11.80;;;6.53;;
50213;SDS011;36103;54.176;12.070;2022-10-31T03:22:13;10.00;;;6.50;;
50213;SDS011;36103;54.176;12.070;2022-10-31T03:23:17;13.60;;;6.87;;
50213;SDS011;36103;54.176;12.070;2022-10-31T03:24:24;11.93;;;6.60;;
50213;SDS011;36103;54.176;12.070;2022-10-31T03:25:26;8.93;;;6.07;;
50213;SDS011;36103;54.176;12.070;2022-10-31T03:26:30;10.07;;;6.23;;
50213;SDS011;36103;54.176;12.070;2022-10-31T03:27:32;10.60;;;6.93;;
50213;SDS011;36103;54.176;12.070;2022-10-31T03:28:36;11.57;;;6.70;;
50213;SDS011;36103;54.176;12.070;2022-10-31T03:29:38;11.90;;;6.70;;
50213;SDS011;36103;54.176;12.070;2022-10-31T03:30:42;11.23;;;6.60;;
50213;SDS011;36103;54.176;12.070;2022-10-31T03:31:47;10.87;;;6.43;;
50213;SDS011;36103;54.176;12.070;2022-10-31T03:32:51;8.50;;;5.90;;
50213;SDS011;36103;54.176;12.070;2022-10-31T03:33:56;10.73;;;6.73;;
50213;SDS011;36103;54.176;12.070;2022-10-31T03:35:03;11.00;;;6.63;;
50213;SDS011;36103;54.176;12.070;2022-10-31T03:36:06;10.07;;;6.37;;
50213;SDS011;36103;54.176;12.070;2022-10-31T03:37:09;9.93;;;6.07;;
50213;SDS011;36103;54.176;12.070;2022-10-31T03:38:11;9.80;;;6.13;;
50213;SDS011;36103;54.176;12.070;2022-10-31T03:39:13;10.17;;;6.30;;
50213;SDS011;36103;54.176;12.070;2022-10-31T03:40:14;10.97;;;6.17;;
50213;SDS011;36103;54.176;12.070;2022-10-31T03:41:18;9.03;;;6.03;;
50213;SDS011;36103;54.176;12.070;2022-10-31T03:42:22;10.63;;;6.37;;
50213;SDS011;36103;54.176;12.070;2022-10-31T03:43:26;9.20;;;6.17;;
50213;SDS011;36103;54.176;12.070;2022-10-31T03:44:28;11.30;;;6.30;;
50213;SDS011;36103;54.176;12.070;2022-10-31T03:45:35;14.07;;;6.43;;
50213;SDS011;36103;54.176;12.070;2022-10-31T03:46:39;9.33;;;6.10;;
50213;SDS011;36103;54.176;12.070;2022-10-31T03:47:42;9.67;;;6.10;;
50213;SDS011;36103;54.176;12.070;2022-10-31T03:48:43;7.63;;;5.53;;
50213;SDS011;36103;54.176;12.070;2022-10-31T03:49:45;9.07;;;5.77;;
50213;SDS011;36103;54.176;12.070;2022-10-31T03:50:49;10.47;;;6.43;;
50213;SDS011;36103;54.176;12.070;2022-10-31T03:51:55;11.27;;;6.03;;
50213;SDS011;36103;54.176;12.070;2022-10-31T03:52:59;10.97;;;6.23;;
50213;SDS011;36103;54.176;12.070;2022-10-31T03:54:07;11.17;;;5.77;;
50213;SDS011;36103;54.176;12.070;2022-10-31T03:55:11;9.60;;;5.90;;
50213;SDS011;36103;54.176;12.070;2022-10-31T03:56:16;10.87;;;5.87;;
50213;SDS011;36103;54.176;12.070;2022-10-31T03:57:21;9.37;;;6.40;;
50213;SDS011;36103;54.176;12.070;2022-10-31T03:58:27;9.37;;;5.87;;
50213;SDS011;36103;54.176;12.070;2022-10-31T03:59:31;8.87;;;5.57;;
50213;SDS011;36103;54.176;12.070;2022-10-31T04:00:34;8.43;;;5.50;;
50213;SDS011;36103;54.176;12.070;2022-10-31T04:01:38;8.20;;;5.30;;
50213;SDS011;36103;54.176;12.070;2022-10-31T04:02:45;9.97;;;5.93;;
50213;SDS011;36103;54.176;12.070;2022-10-31T04:03:47;10.30;;;5.90;;
50213;SDS011;36103;54.176;12.070;2022-10-31T04:04:49;9.13;;;6.30;;
50213;SDS011;36103;54.176;12.070;2022-10-31T04:05:51;8.73;;;6.60;;
50213;SDS011;36103;54.176;12.070;2022-10-31T04:06:55;8.70;;;5.87;;
50213;SDS011;36103;54.176;12.070;2022-10-31T04:07:57;9.37;;;5.67;;
50213;SDS011;36103;54.176;12.070;2022-10-31T04:09:00;9.73;;;6.10;;
50213;SDS011;36103;54.176;12.070;2022-10-31T04:10:04;8.03;;;5.97;;
50213;SDS011;36103;54.176;12.070;2022-10-31T04:11:07;7.33;;;5.20;;
50213;SDS011;36103;54.176;12.070;2022-10-31T04:12:14;9.13;;;5.93;;
50213;SDS011;36103;54.176;12.070;2022-10-31T04:13:43;7.67;;;5.73;;
50213;SDS011;36103;54.176;12.070;2022-10-31T04:14:48;8.77;;;6.07;;
50213;SDS011;36103;54.176;12.070;2022-10-31T04:15:50;8.73;;;5.83;;
50213;SDS011;36103;54.176;12.070;2022-10-31T04:16:55;7.57;;;5.70;;
50213;SDS011;36103;54.176;12.070;2022-10-31T04:18:06;8.13;;;5.60;;
50213;SDS011;36103;54.176;12.070;2022-10-31T04:19:07;9.60;;;6.07;;
50213;SDS011;36103;54.176;12.070;2022-10-31T04:20:09;9.33;;;6.20;;
50213;SDS011;36103;54.176;12.070;2022-10-31T04:21:10;7.93;;;5.80;;
50213;SDS011;36103;54.176;12.070;2022-10-31T04:22:11;9.00;;;5.50;;
50213;SDS011;36103;54.176;12.070;2022-10-31T04:23:14;8.07;;;5.20;;
50213;SDS011;36103;54.176;12.070;2022-10-31T04:24:19;9.57;;;5.47;;
50213;SDS011;36103;54.176;12.070;2022-10-31T04:25:19;8.13;;;5.83;;
50213;SDS011;36103;54.176;12.070;2022-10-31T04:26:22;8.27;;;5.77;;
50213;SDS011;36103;54.176;12.070;2022-10-31T04:27:23;8.47;;;5.80;;
50213;SDS011;36103;54.176;12.070;2022-10-31T04:28:26;9.50;;;6.17;;
50213;SDS011;36103;54.176;12.070;2022-10-31T04:29:26;8.43;;;5.63;;
50213;SDS011;36103;54.176;12.070;2022-10-31T04:30:28;9.53;;;6.40;;
50213;SDS011;36103;54.176;12.070;2022-10-31T04:31:29;9.30;;;5.60;;
50213;SDS011;36103;54.176;12.070;2022-10-31T04:32:31;9.00;;;6.00;;
50213;SDS011;36103;54.176;12.070;2022-10-31T04:33:33;8.77;;;5.77;;
50213;SDS011;36103;54.176;12.070;2022-10-31T04:34:35;9.03;;;5.70;;
50213;SDS011;36103;54.176;12.070;2022-10-31T04:35:36;6.87;;;5.23;;
50213;SDS011;36103;54.176;12.070;2022-10-31T04:36:38;9.30;;;6.00;;
50213;SDS011;36103;54.176;12.070;2022-10-31T04:37:41;8.83;;;5.80;;
50213;SDS011;36103;54.176;12.070;2022-10-31T04:38:42;8.40;;;5.17;;
50213;SDS011;36103;54.176;12.070;2022-10-31T04:39:59;8.87;;;5.47;;
50213;SDS011;36103;54.176;12.070;2022-10-31T04:41:18;9.63;;;5.47;;
50213;SDS011;36103;54.176;12.070;2022-10-31T04:42:29;7.20;;;5.00;;
50213;SDS011;36103;54.176;12.070;2022-10-31T04:43:31;9.27;;;5.50;;
50213;SDS011;36103;54.176;12.070;2022-10-31T04:44:36;7.77;;;5.00;;
50213;SDS011;36103;54.176;12.070;2022-10-31T04:45:38;9.30;;;5.97;;
50213;SDS011;36103;54.176;12.070;2022-10-31T04:46:38;8.13;;;5.53;;
50213;SDS011;36103;54.176;12.070;2022-10-31T04:47:41;7.63;;;5.73;;
50213;SDS011;36103;54.176;12.070;2022-10-31T04:48:43;9.70;;;5.63;;
50213;SDS011;36103;54.176;12.070;2022-10-31T04:49:45;8.30;;;5.50;;
50213;SDS011;36103;54.176;12.070;2022-10-31T04:50:46;7.30;;;5.27;;
50213;SDS011;36103;54.176;12.070;2022-10-31T04:51:48;8.40;;;5.40;;
50213;SDS011;36103;54.176;12.070;2022-10-31T04:52:50;8.50;;;5.30;;
50213;SDS011;36103;54.176;12.070;2022-10-31T04:53:55;8.60;;;5.37;;
50213;SDS011;36103;54.176;12.070;2022-10-31T04:55:01;7.70;;;5.47;;
50213;SDS011;36103;54.176;12.070;2022-10-31T04:56:21;8.07;;;5.30;;
50213;SDS011;36103;54.176;12.070;2022-10-31T04:57:29;7.73;;;4.90;;
50213;SDS011;36103;54.176;12.070;2022-10-31T04:58:29;9.33;;;5.53;;
50213;SDS011;36103;54.176;12.070;2022-10-31T04:59:31;6.53;;;5.20;;
50213;SDS011;36103;54.176;12.070;2022-10-31T05:00:33;7.53;;;5.07;;
50213;SDS011;36103;54.176;12.070;2022-10-31T05:01:35;6.80;;;4.50;;
50213;SDS011;36103;54.176;12.070;2022-10-31T05:02:42;7.10;;;5.10;;
50213;SDS011;36103;54.176;12.070;2022-10-31T05:03:45;9.53;;;5.37;;
50213;SDS011;36103;54.176;12.070;2022-10-31T05:04:45;9.03;;;5.70;;
50213;SDS011;36103;54.176;12.070;2022-10-31T05:05:47;7.43;;;5.10;;
50213;SDS011;36103;54.176;12.070;2022-10-31T05:06:48;5.73;;;4.60;;
50213;SDS011;36103;54.176;12.070;2022-10-31T05:07:49;8.47;;;4.97;;
50213;SDS011;36103;54.176;12.070;2022-10-31T05:08:52;7.30;;;5.10;;
50213;SDS011;36103;54.176;12.070;2022-10-31T05:09:54;7.87;;;4.90;;
50213;SDS011;36103;54.176;12.070;2022-10-31T05:10:54;6.13;;;4.37;;
50213;SDS011;36103;54.176;12.070;2022-10-31T05:11:55;7.10;;;5.07;;
50213;SDS011;36103;54.176;12.070;2022-10-31T05:13:16;8.20;;;5.17;;
50213;SDS011;36103;54.176;12.070;2022-10-31T05:14:56;7.33;;;4.80;;
50213;SDS011;36103;54.176;12.070;2022-10-31T05:16:23;7.70;;;5.30;;
50213;SDS011;36103;54.176;12.070;2022-10-31T05:17:48;6.17;;;5.03;;
50213;SDS011;36103;54.176;12.070;2022-10-31T05:19:09;6.80;;;5.13;;
50213;SDS011;36103;54.176;12.070;2022-10-31T05:20:49;7.17;;;4.93;;
50213;SDS011;36103;54.176;12.070;2022-10-31T05:21:58;6.93;;;4.83;;
50213;SDS011;36103;54.176;12.070;2022-10-31T05:22:59;6.77;;;4.80;;
50213;SDS011;36103;54.176;12.070;2022-10-31T05:24:01;6.37;;;4.80;;
50213;SDS011;36103;54.176;12.070;2022-10-31T05:25:02;7.83;;;4.67;;
50213;SDS011;36103;54.176;12.070;2022-10-31T05:26:04;6.70;;;4.90;;
50213;SDS011;36103;54.176;12.070;2022-10-31T05:27:05;8.13;;;5.30;;
50213;SDS011;36103;54.176;12.070;2022-10-31T05:28:06;7.37;;;5.17;;
50213;SDS011;36103;54.176;12.070;2022-10-31T05:29:07;8.10;;;4.77;;
50213;SDS011;36103;54.176;12.070;2022-10-31T05:30:10;8.13;;;4.93;;
50213;SDS011;36103;54.176;12.070;2022-10-31T05:31:12;10.67;;;5.30;;
50213;SDS011;36103;54.176;12.070;2022-10-31T05:32:15;6.27;;;4.67;;
50213;SDS011;36103;54.176;12.070;2022-10-31T05:33:35;6.40;;;4.97;;
50213;SDS011;36103;54.176;12.070;2022-10-31T05:34:56;5.43;;;4.50;;
50213;SDS011;36103;54.176;12.070;2022-10-31T05:36:13;5.73;;;4.73;;
50213;SDS011;36103;54.176;12.070;2022-10-31T05:37:18;6.27;;;4.90;;
50213;SDS011;36103;54.176;12.070;2022-10-31T05:38:19;8.77;;;5.07;;
50213;SDS011;36103;54.176;12.070;2022-10-31T05:39:21;7.83;;;4.97;;
50213;SDS011;36103;54.176;12.070;2022-10-31T05:40:24;9.73;;;5.10;;
50213;SDS011;36103;54.176;12.070;2022-10-31T05:41:27;6.60;;;4.83;;
50213;SDS011;36103;54.176;12.070;2022-10-31T05:42:37;6.37;;;4.70;;
50213;SDS011;36103;54.176;12.070;2022-10-31T05:43:39;6.37;;;4.50;;
50213;SDS011;36103;54.176;12.070;2022-10-31T05:44:41;5.80;;;4.57;;
50213;SDS011;36103;54.176;12.070;2022-10-31T05:46:04;7.50;;;4.87;;
50213;SDS011;36103;54.176;12.070;2022-10-31T05:47:24;6.83;;;4.50;;
50213;SDS011;36103;54.176;12.070;2022-10-31T05:48:43;7.67;;;5.07;;
50213;SDS011;36103;54.176;12.070;2022-10-31T05:50:05;6.13;;;4.20;;
50213;SDS011;36103;54.176;12.070;2022-10-31T05:51:21;5.80;;;4.50;;
50213;SDS011;36103;54.176;12.070;2022-10-31T05:52:23;5.60;;;4.23;;
50213;SDS011;36103;54.176;12.070;2022-10-31T05:53:31;5.93;;;4.37;;
50213;SDS011;36103;54.176;12.070;2022-10-31T05:54:32;6.73;;;4.80;;
50213;SDS011;36103;54.176;12.070;2022-10-31T05:55:33;6.17;;;4.77;;
50213;SDS011;36103;54.176;12.070;2022-10-31T05:56:42;6.50;;;4.70;;
50213;SDS011;36103;54.176;12.070;2022-10-31T05:57:43;6.97;;;4.27;;
50213;SDS011;36103;54.176;12.070;2022-10-31T05:58:44;7.07;;;4.70;;
50213;SDS011;36103;54.176;12.070;2022-10-31T05:59:45;6.83;;;4.47;;
50213;SDS011;36103;54.176;12.070;2022-10-31T06:00:46;6.23;;;4.53;;
50213;SDS011;36103;54.176;12.070;2022-10-31T06:01:47;7.23;;;4.80;;
50213;SDS011;36103;54.176;12.070;2022-10-31T06:03:17;7.37;;;4.33;;
50213;SDS011;36103;54.176;12.070;2022-10-31T06:04:25;6.73;;;4.23;;
50213;SDS011;36103;54.176;12.070;2022-10-31T06:05:27;6.37;;;4.57;;
50213;SDS011;36103;54.176;12.070;2022-10-31T06:06:29;5.40;;;3.93;;
50213;SDS011;36103;54.176;12.070;2022-10-31T06:07:32;5.27;;;4.13;;
50213;SDS011;36103;54.176;12.070;2022-10-31T06:08:35;7.07;;;4.20;;
50213;SDS011;36103;54.176;12.070;2022-10-31T06:09:38;6.50;;;4.73;;
50213;SDS011;36103;54.176;12.070;2022-10-31T06:10:40;5.23;;;4.30;;
50213;SDS011;36103;54.176;12.070;2022-10-31T06:11:41;6.53;;;4.73;;
50213;SDS011;36103;54.176;12.070;2022-10-31T06:12:42;5.57;;;4.30;;
50213;SDS011;36103;54.176;12.070;2022-10-31T06:13:51;8.87;;;4.40;;
50213;SDS011;36103;54.176;12.070;2022-10-31T06:14:57;5.97;;;4.53;;
50213;SDS011;36103;54.176;12.070;2022-10-31T06:15:58;6.60;;;4.03;;
50213;SDS011;36103;54.176;12.070;2022-10-31T06:17:06;6.70;;;4.60;;
50213;SDS011;36103;54.176;12.070;2022-10-31T06:18:26;5.77;;;4.27;;
50213;SDS011;36103;54.176;12.070;2022-10-31T06:19:28;6.60;;;4.40;;
50213;SDS011;36103;54.176;12.070;2022-10-31T06:20:30;7.57;;;4.00;;